Terminal Aerodrome Forecast
Issued by NWS Charleston, WV

Current Version | Previous Version | Text Only | Print | Product List | Glossary Off
Versions: 1 2 3 4 5 6 7 8 9 10 11 12 13 14 15 16 17 18 19 20 21 22 23 24 25 26

000
FTUS41 KRLX 261700
TAFBKW
TAF
KBKW 261739Z 2618/2718 00000KT 1/4SM -SN FG VV003
     FM261900 VRB03KT 2SM -SN OVC005
     FM262200 VRB03KT 3SM -SN OVC008
     FM270200 00000KT 6SM BR OVC010
     FM271500 29007KT 2SM -SHRASN OVC008=

USA.gov is the U.S. government's official web portal to all federal, state and local government web resources and services.